Kampville Beach, Missouri
Current Conditions -  °F | °C
As of 7:54 PM on Monday 24 Nov 2014 (Local Time) from KSET Reporting Station
Overcast Overcast  
Wind Chill: 32°   Ceiling: 8500
Heat Index: 38°   Visibility: 10mi
Dew Point: 28°   Wind: 8mph
Humidity: 68%   Direction: 270°W
Pressure: 29.94"   Gusts: NA
Location:  38.8615°N, 90.4548°W
Report Text: KSET 250154Z AUTO 27007KT 10SM OVC085 03/M02 A2994 RMK AO2 SLP140 T00331022
Loading
Personal Weather Stations






























Interactive Weather Map New forecast layout! Learn more

10-Day Weather Forecast

Advertisements
Track Severe Weather on mobile